createdAt,value
2023-08-29T00:00:46.942Z,15.04
2023-08-29T00:04:49.811Z,14.98
2023-08-29T00:08:52.792Z,14.98
2023-08-29T00:12:55.700Z,14.91
2023-08-29T00:16:59.961Z,14.75
2023-08-29T00:21:02.888Z,14.67
2023-08-29T00:25:06.247Z,14.55
2023-08-29T00:29:09.214Z,14.43
2023-08-29T00:33:13.715Z,14.36
2023-08-29T00:37:16.682Z,14.23
2023-08-29T00:41:19.560Z,14.22
2023-08-29T00:45:22.611Z,14.16
2023-08-29T00:49:28.795Z,14.08
2023-08-29T00:53:32.062Z,14.04
2023-08-29T00:57:35.079Z,13.90
2023-08-29T01:01:38.306Z,13.82
2023-08-29T01:05:42.642Z,13.75
2023-08-29T01:09:45.638Z,13.68
2023-08-29T01:13:52.959Z,13.62
2023-08-29T01:18:01.620Z,13.54
2023-08-29T01:22:13.734Z,13.45
2023-08-29T01:26:18.668Z,13.36
2023-08-29T01:30:22.073Z,13.27
2023-08-29T01:34:25.668Z,13.47
2023-08-29T01:38:28.782Z,13.45
2023-08-29T01:42:33.016Z,13.38
2023-08-29T01:46:35.929Z,13.45
2023-08-29T01:50:39.787Z,13.25
2023-08-29T01:54:42.904Z,13.21
2023-08-29T01:58:48.004Z,13.37
2023-08-29T02:02:50.937Z,13.32
2023-08-29T02:06:54.058Z,13.18
2023-08-29T02:10:56.943Z,13.15
2023-08-29T02:15:01.232Z,13.23
2023-08-29T02:19:04.786Z,13.14
2023-08-29T02:23:07.734Z,13.25
2023-08-29T02:27:10.649Z,13.15
2023-08-29T02:31:15.428Z,13.09
2023-08-29T02:35:18.531Z,13.04
2023-08-29T02:39:21.546Z,12.98
2023-08-29T02:43:26.711Z,13.00
2023-08-29T02:47:31.880Z,12.96
2023-08-29T02:51:37.685Z,13.02
2023-08-29T02:55:42.056Z,13.05
2023-08-29T02:59:44.971Z,13.15
2023-08-29T03:03:49.383Z,13.04
2023-08-29T03:07:53.750Z,13.02
2023-08-29T03:11:56.911Z,13.20
2023-08-29T03:16:00.739Z,13.12
2023-08-29T03:20:06.752Z,13.15
2023-08-29T03:24:09.721Z,13.09
2023-08-29T03:28:12.880Z,13.06
2023-08-29T03:32:15.847Z,13.00
2023-08-29T03:36:21.066Z,13.03
2023-08-29T03:40:24.067Z,13.03
2023-08-29T03:44:27.017Z,13.00
2023-08-29T03:48:30.062Z,12.97
2023-08-29T03:52:34.406Z,12.96
2023-08-29T03:56:40.350Z,12.93
2023-08-29T04:00:44.040Z,12.95
2023-08-29T04:04:47.278Z,13.01
2023-08-29T04:08:51.591Z,12.96
2023-08-29T04:12:54.639Z,12.96
2023-08-29T04:16:59.124Z,12.94
2023-08-29T04:21:02.270Z,12.94
2023-08-29T04:25:07.858Z,12.92
2023-08-29T04:29:10.872Z,12.93
2023-08-29T04:33:13.798Z,12.90
2023-08-29T04:37:17.703Z,12.90
2023-08-29T04:41:21.998Z,12.93
2023-08-29T04:45:25.177Z,12.90
2023-08-29T04:49:29.071Z,12.90
2023-08-29T04:53:33.440Z,12.85
2023-08-29T04:57:38.614Z,12.82
2023-08-29T05:01:41.704Z,12.81
2023-08-29T05:05:47.253Z,12.85
2023-08-29T05:09:51.538Z,12.87
2023-08-29T05:13:55.900Z,12.88
2023-08-29T05:17:59.508Z,12.91
2023-08-29T05:22:02.590Z,12.92
2023-08-29T05:26:06.578Z,12.94
2023-08-29T05:30:11.559Z,12.98
2023-08-29T05:34:14.443Z,12.98
2023-08-29T05:38:17.539Z,13.03
2023-08-29T05:42:20.516Z,13.05
2023-08-29T05:46:24.977Z,13.13
2023-08-29T05:50:27.971Z,13.11
2023-08-29T05:54:30.957Z,13.06
2023-08-29T05:58:33.968Z,13.18
2023-08-29T06:02:38.241Z,13.23
2023-08-29T06:06:42.242Z,13.30
2023-08-29T06:10:45.333Z,13.14
2023-08-29T06:14:48.369Z,13.22
2023-08-29T06:18:52.788Z,13.26
2023-08-29T06:22:57.892Z,13.49
2023-08-29T06:27:00.812Z,13.57
2023-08-29T06:31:08.679Z,13.65
2023-08-29T06:35:13.334Z,13.62
2023-08-29T06:39:16.469Z,13.74
2023-08-29T06:43:19.384Z,14.03
2023-08-29T06:47:22.417Z,14.01
2023-08-29T06:51:26.723Z,14.02
2023-08-29T06:55:29.939Z,14.04
2023-08-29T06:59:33.558Z,14.15
2023-08-29T07:03:36.669Z,14.37
2023-08-29T07:07:41.751Z,14.51
2023-08-29T07:11:44.772Z,14.64
2023-08-29T07:15:48.267Z,14.90
2023-08-29T07:19:51.195Z,15.02
2023-08-29T07:23:56.501Z,14.76
2023-08-29T07:28:00.294Z,15.06
2023-08-29T07:32:03.542Z,15.22
2023-08-29T07:36:06.699Z,15.38
2023-08-29T07:40:12.725Z,15.55
2023-08-29T07:44:15.678Z,15.14
2023-08-29T07:48:18.770Z,14.87
2023-08-29T07:52:21.755Z,14.72
2023-08-29T07:56:26.061Z,15.38
2023-08-29T08:00:29.564Z,16.09
2023-08-29T08:04:32.643Z,15.95
2023-08-29T08:08:35.614Z,16.40
2023-08-29T08:12:40.451Z,16.63
2023-08-29T08:16:43.450Z,16.88
2023-08-29T08:20:46.725Z,16.23
2023-08-29T08:24:49.717Z,16.93
2023-08-29T08:28:55.186Z,17.18
2023-08-29T08:32:58.121Z,17.51
2023-08-29T08:37:01.166Z,17.03
2023-08-29T08:41:05.639Z,17.12
2023-08-29T08:45:11.625Z,17.67
2023-08-29T08:49:14.972Z,18.41
2023-08-29T08:53:20.431Z,18.76
2023-08-29T08:57:23.492Z,18.37
2023-08-29T09:01:28.028Z,18.44
2023-08-29T09:05:30.958Z,18.21
2023-08-29T09:09:33.921Z,18.37
2023-08-29T09:13:36.915Z,18.96
2023-08-29T09:17:47.386Z,18.62
2023-08-29T09:21:50.348Z,18.89
2023-08-29T09:25:57.331Z,18.95
2023-08-29T09:30:08.381Z,20.15
2023-08-29T09:34:23.526Z,20.70
2023-08-29T09:38:30.139Z,20.69
2023-08-29T09:42:33.108Z,20.59
2023-08-29T09:46:37.131Z,21.60
2023-08-29T09:50:43.390Z,23.05
2023-08-29T09:54:47.255Z,23.65
2023-08-29T09:58:51.598Z,21.14
2023-08-29T10:02:57.873Z,21.85
2023-08-29T10:07:03.280Z,21.96
2023-08-29T10:11:07.675Z,21.24
2023-08-29T10:15:11.387Z,21.15
2023-08-29T10:19:17.870Z,20.29
2023-08-29T10:23:22.996Z,20.65
2023-08-29T10:27:26.204Z,21.36
2023-08-29T10:31:29.906Z,20.89
2023-08-29T10:35:33.644Z,22.61
2023-08-29T10:39:38.030Z,21.31
2023-08-29T10:43:41.039Z,21.58
2023-08-29T10:47:48.307Z,22.90
2023-08-29T10:52:06.324Z,23.09
2023-08-29T10:56:11.456Z,23.38
2023-08-29T11:00:17.903Z,23.07
2023-08-29T11:04:23.815Z,22.50
2023-08-29T11:08:27.073Z,22.48
2023-08-29T11:12:31.535Z,21.53
2023-08-29T11:16:36.524Z,19.87
2023-08-29T11:20:39.674Z,19.90
2023-08-29T11:24:43.132Z,20.53
2023-08-29T11:28:49.011Z,20.76
2023-08-29T11:32:52.250Z,20.43
2023-08-29T11:36:55.608Z,20.15
2023-08-29T11:41:04.179Z,18.89
2023-08-29T11:45:45.356Z,19.15
2023-08-29T11:49:42.449Z,19.40
2023-08-29T11:53:45.567Z,19.75
2023-08-29T11:57:48.588Z,19.26
2023-08-29T12:01:53.141Z,19.81
2023-08-29T12:05:59.628Z,20.01
2023-08-29T12:10:08.514Z,19.46
2023-08-29T12:14:11.449Z,19.72
2023-08-29T12:18:25.973Z,19.83
2023-08-29T12:22:32.335Z,20.01
2023-08-29T12:26:35.338Z,20.91
2023-08-29T12:30:39.015Z,21.83
2023-08-29T12:34:45.028Z,23.21
2023-08-29T12:38:48.020Z,22.88
2023-08-29T12:42:52.626Z,24.11
2023-08-29T12:46:55.678Z,21.73
2023-08-29T12:51:03.501Z,20.90
2023-08-29T12:55:07.301Z,21.30
2023-08-29T12:59:11.071Z,21.38
2023-08-29T13:03:14.467Z,21.20
2023-08-29T13:07:18.821Z,20.79
2023-08-29T13:11:21.888Z,20.79
2023-08-29T13:15:28.686Z,21.30
2023-08-29T13:19:40.360Z,20.88
2023-08-29T13:23:45.010Z,20.93
2023-08-29T13:27:49.927Z,21.49
2023-08-29T13:31:53.407Z,23.30
2023-08-29T13:35:56.379Z,22.89
2023-08-29T13:40:00.820Z,23.62
2023-08-29T13:44:09.393Z,23.20
2023-08-29T13:48:15.337Z,22.00
2023-08-29T13:52:18.290Z,21.37
2023-08-29T13:56:22.916Z,24.02
2023-08-29T14:00:25.961Z,22.96
2023-08-29T14:04:29.000Z,22.77
2023-08-29T14:08:31.948Z,23.24
2023-08-29T14:12:36.517Z,21.90
2023-08-29T14:16:41.893Z,23.97
2023-08-29T14:20:46.558Z,24.41
2023-08-29T14:24:49.690Z,25.27
2023-08-29T14:28:53.944Z,25.11
2023-08-29T14:32:57.634Z,25.93
2023-08-29T14:37:00.943Z,27.77
2023-08-29T14:41:07.775Z,26.27
2023-08-29T14:45:12.418Z,26.93
2023-08-29T14:49:16.431Z,26.95
2023-08-29T14:53:19.526Z,25.41
2023-08-29T14:57:23.488Z,25.40
2023-08-29T15:01:28.112Z,25.83
2023-08-29T15:05:31.462Z,26.54
2023-08-29T15:09:34.642Z,27.98
2023-08-29T15:13:43.578Z,25.91
2023-08-29T15:17:47.976Z,23.20
2023-08-29T15:21:51.840Z,23.40
2023-08-29T15:25:54.881Z,22.48
2023-08-29T15:29:57.911Z,22.38
2023-08-29T15:34:02.453Z,22.10
2023-08-29T15:38:05.760Z,21.96
2023-08-29T15:42:09.288Z,21.95
2023-08-29T15:46:12.320Z,22.38
2023-08-29T15:50:17.015Z,22.15
2023-08-29T15:54:20.273Z,22.95
2023-08-29T15:58:23.200Z,24.50
2023-08-29T16:02:26.195Z,25.03
2023-08-29T16:06:30.584Z,25.44
2023-08-29T16:10:33.525Z,24.76
2023-08-29T16:14:36.591Z,24.49
2023-08-29T16:18:39.611Z,23.09
2023-08-29T16:22:43.927Z,23.43
2023-08-29T16:26:46.957Z,22.63
2023-08-29T16:30:49.990Z,23.48
2023-08-29T16:34:54.420Z,22.97
2023-08-29T16:38:58.691Z,22.99
2023-08-29T16:43:01.909Z,22.36
2023-08-29T16:47:05.149Z,21.50
2023-08-29T16:51:08.178Z,20.75
2023-08-29T16:55:13.143Z,20.40
2023-08-29T16:59:16.216Z,20.14
2023-08-29T17:03:20.674Z,20.05
2023-08-29T17:07:23.903Z,19.89
2023-08-29T17:11:28.332Z,19.83
2023-08-29T17:15:31.292Z,19.69
2023-08-29T17:19:34.590Z,19.69
2023-08-29T17:23:37.519Z,19.72
2023-08-29T17:27:42.202Z,19.62
2023-08-29T17:31:45.167Z,19.51
2023-08-29T17:35:48.649Z,19.44
2023-08-29T17:39:51.640Z,19.39
2023-08-29T17:43:56.005Z,19.13
2023-08-29T17:47:59.002Z,18.51
2023-08-29T17:52:01.999Z,18.53
2023-08-29T17:56:05.102Z,18.08
2023-08-29T18:00:11.385Z,18.06
2023-08-29T18:04:14.427Z,17.95
2023-08-29T18:08:17.594Z,17.68
2023-08-29T18:12:20.635Z,17.42
2023-08-29T18:16:25.029Z,17.43
2023-08-29T18:20:28.002Z,17.20
2023-08-29T18:24:30.879Z,17.25
2023-08-29T18:28:34.374Z,17.01
2023-08-29T18:32:38.634Z,16.99
2023-08-29T18:36:41.668Z,16.94
2023-08-29T18:40:44.753Z,17.03
2023-08-29T18:44:47.726Z,16.98
2023-08-29T18:48:52.448Z,16.91
2023-08-29T18:52:56.911Z,16.80
2023-08-29T18:57:00.177Z,16.71
2023-08-29T19:01:03.283Z,16.64
2023-08-29T19:05:08.343Z,16.64
2023-08-29T19:09:11.525Z,16.51
2023-08-29T19:13:14.889Z,16.49
2023-08-29T19:17:17.889Z,16.51
2023-08-29T19:21:22.779Z,16.48
2023-08-29T19:25:26.146Z,16.57
2023-08-29T19:29:29.079Z,16.55
2023-08-29T19:33:32.611Z,16.57
2023-08-29T19:37:36.902Z,16.54
2023-08-29T19:41:39.820Z,16.54
2023-08-29T19:45:42.833Z,16.49
2023-08-29T19:49:48.571Z,16.46
2023-08-29T19:53:52.911Z,16.44
2023-08-29T19:57:56.495Z,16.42
2023-08-29T20:01:59.487Z,16.41
2023-08-29T20:06:02.525Z,16.40
2023-08-29T20:10:08.316Z,16.34
2023-08-29T20:14:11.353Z,16.32
2023-08-29T20:18:14.373Z,16.27
2023-08-29T20:22:17.344Z,16.22
2023-08-29T20:26:22.506Z,16.10
2023-08-29T20:30:26.143Z,16.06
2023-08-29T20:34:29.164Z,16.03
2023-08-29T20:38:32.165Z,15.92
2023-08-29T20:42:37.139Z,15.86
2023-08-29T20:46:40.191Z,15.83
2023-08-29T20:50:43.549Z,15.71
2023-08-29T20:54:46.494Z,15.65
2023-08-29T20:58:50.765Z,15.62
2023-08-29T21:02:56.107Z,15.62
2023-08-29T21:06:59.247Z,15.66
2023-08-29T21:11:02.245Z,15.67
2023-08-29T21:15:07.231Z,15.64
2023-08-29T21:19:13.289Z,15.70
2023-08-29T21:23:16.477Z,15.71
2023-08-29T21:27:19.449Z,15.71
2023-08-29T21:31:23.964Z,15.67
2023-08-29T21:35:27.123Z,15.66
2023-08-29T21:39:30.962Z,15.56
2023-08-29T21:43:34.025Z,15.56
2023-08-29T21:47:38.317Z,15.45
2023-08-29T21:51:41.255Z,15.44
2023-08-29T21:55:44.595Z,15.45
2023-08-29T21:59:47.555Z,15.40
2023-08-29T22:03:52.138Z,15.32
2023-08-29T22:07:55.163Z,15.36
2023-08-29T22:11:58.527Z,15.34
2023-08-29T22:16:01.464Z,15.22
2023-08-29T22:20:06.472Z,15.18
2023-08-29T22:24:09.814Z,14.95
2023-08-29T22:28:12.734Z,14.82
2023-08-29T22:32:15.727Z,14.81
2023-08-29T22:36:19.954Z,14.67
2023-08-29T22:40:23.071Z,14.53
2023-08-29T22:44:26.231Z,14.52
2023-08-29T22:48:29.148Z,14.39
2023-08-29T22:52:33.970Z,14.21
2023-08-29T22:56:36.862Z,14.29
2023-08-29T23:00:39.724Z,14.21
2023-08-29T23:04:42.883Z,14.10
2023-08-29T23:08:48.081Z,14.03
2023-08-29T23:12:51.060Z,13.88
2023-08-29T23:16:54.184Z,13.77
2023-08-29T23:20:57.089Z,13.66
2023-08-29T23:25:01.427Z,13.76
2023-08-29T23:29:04.665Z,13.82
2023-08-29T23:33:08.148Z,13.58
2023-08-29T23:37:11.102Z,13.56
2023-08-29T23:41:15.349Z,13.41
2023-08-29T23:45:18.383Z,13.43
2023-08-29T23:49:21.333Z,13.34
2023-08-29T23:53:24.272Z,13.47
2023-08-29T23:57:28.800Z,13.35
